Time;durP1;ratioP1;P1;durP2;ratioP2;P2;SDS_P1;SDS_P2;PMS_P1;PMS_P2;Temp;Humidity;BMP_temperature;BMP_pressure;BME280_temperature;BME280_humidity;BME280_pressure;Samples;Min_cycle;Max_cycle;Signal;HPM_P1;HPM_P2
2021/04/03 00:00:49;;;;;;;11.45;6.65;;;;;;;5.59;61.21;100112.42;104761;1101;79036;-59
2021/04/03 00:02:59;;;;;;;9.93;6.38;;;;;;;5.59;61.28;100112.42;104755;1101;64282;-59
2021/04/03 00:05:07;;;;;;;11.07;6.07;;;;;;;5.56;61.44;100115.42;104807;1101;81244;-59
2021/04/03 00:07:13;;;;;;;10.80;5.63;;;;;;;5.51;61.77;100117.77;104680;1101;71532;-59
2021/04/03 00:09:19;;;;;;;12.97;6.40;;;;;;;5.48;61.48;100118.09;104779;1101;84226;-65
2021/04/03 00:11:25;;;;;;;9.30;6.15;;;;;;;5.39;61.80;100119.91;104751;1101;77887;-64
2021/04/03 00:13:34;;;;;;;11.18;7.50;;;;;;;5.33;61.61;100117.87;104804;1101;64685;-59
2021/04/03 00:15:42;;;;;;;10.48;6.63;;;;;;;5.27;61.71;100110.51;104761;1101;80658;-58
2021/04/03 00:17:50;;;;;;;8.85;5.65;;;;;;;5.25;61.71;100118.69;104788;1101;73286;-60
2021/04/03 00:19:56;;;;;;;8.88;5.38;;;;;;;5.22;61.80;100116.33;104554;1101;84111;-61
2021/04/03 00:22:02;;;;;;;9.53;5.70;;;;;;;5.18;61.85;100114.15;104462;1104;77926;-65
2021/04/03 00:24:11;;;;;;;9.67;5.77;;;;;;;5.14;61.78;100115.45;104507;1104;64048;-59
2021/04/03 00:26:17;;;;;;;9.85;5.55;;;;;;;5.08;61.96;100114.27;104519;1104;81850;-59
2021/04/03 00:28:22;;;;;;;11.45;5.95;;;;;;;5.06;61.97;100116.27;104498;1104;71383;-65
2021/04/03 00:30:28;;;;;;;10.23;6.25;;;;;;;5.07;62.07;100107.25;104484;1103;85514;-59
2021/04/03 00:32:34;;;;;;;11.70;6.40;;;;;;;5.09;62.14;100109.75;104462;1104;78530;-59
2021/04/03 00:34:40;;;;;;;10.75;6.63;;;;;;;5.10;62.22;100112.28;104516;1104;64243;-66
2021/04/03 00:36:46;;;;;;;9.93;5.85;;;;;;;5.08;62.18;100102.74;104489;1104;82220;-67
2021/04/03 00:38:55;;;;;;;8.85;5.28;;;;;;;5.07;62.27;100099.22;104472;1104;70920;-65
2021/04/03 00:41:01;;;;;;;9.27;5.38;;;;;;;5.05;62.42;100098.55;104494;1104;84018;-65
2021/04/03 00:43:11;;;;;;;9.53;6.00;;;;;;;5.01;62.29;100097.18;104476;1104;78062;-66
2021/04/03 00:45:19;;;;;;;10.07;5.78;;;;;;;4.92;62.37;100092.78;104530;1104;64259;-65
2021/04/03 00:47:26;;;;;;;7.40;5.18;;;;;;;4.89;62.36;100101.13;104520;1104;81822;-65
2021/04/03 00:49:32;;;;;;;6.55;5.00;;;;;;;4.82;62.55;100094.75;104473;1104;70966;-60
2021/04/03 00:51:37;;;;;;;7.95;5.15;;;;;;;4.76;62.55;100101.58;104521;1104;85099;-60
2021/04/03 00:53:43;;;;;;;8.93;5.30;;;;;;;4.73;62.71;100098.38;104431;1104;78551;-64
2021/04/03 00:55:49;;;;;;;8.20;5.18;;;;;;;4.70;62.55;100096.86;104490;1104;64182;-64
2021/04/03 00:57:55;;;;;;;10.73;6.40;;;;;;;4.67;62.64;100096.33;104496;1104;81998;-60
2021/04/03 01:00:06;;;;;;;9.93;6.10;;;;;;;4.62;62.82;100098.66;104511;1104;71562;-59
2021/04/03 01:02:14;;;;;;;10.05;5.80;;;;;;;4.59;62.96;100099.81;104516;1104;84760;-58
2021/04/03 01:04:19;;;;;;;9.33;5.57;;;;;;;4.58;62.97;100099.98;104524;1103;78648;-64
2021/04/03 01:06:25;;;;;;;8.60;5.65;;;;;;;4.58;63.05;100103.50;104497;1104;64176;-64
2021/04/03 01:08:30;;;;;;;11.90;6.28;;;;;;;4.58;63.19;100097.30;104510;1104;80777;-64
2021/04/03 01:10:39;;;;;;;11.75;7.10;;;;;;;4.56;63.30;100099.31;104485;1104;72133;-64
2021/04/03 01:12:58;;;;;;;14.57;7.50;;;;;;;4.54;63.32;100099.45;104477;1103;84537;-64
2021/04/03 01:15:15;;;;;;;12.45;7.35;;;;;;;4.55;63.52;100113.67;104494;1104;78673;-60
2021/04/03 01:17:29;;;;;;;13.85;8.88;;;;;;;4.52;63.48;100108.63;104513;1104;64109;-59
2021/04/03 01:20:14;;;;;;;13.43;9.02;;;;;;;4.51;63.70;100118.48;104491;1104;81426;-64
2021/04/03 01:22:53;;;;;;;12.68;7.50;;;;;;;4.51;63.95;100112.29;104537;1104;71801;-64
2021/04/03 01:25:17;;;;;;;13.85;6.63;;;;;;;4.47;64.06;100105.59;104518;1104;84272;-59
2021/04/03 01:27:24;;;;;;;11.13;6.57;;;;;;;4.51;64.26;100109.62;104508;1104;78437;-57
2021/04/03 01:30:08;;;;;;;12.25;7.30;;;;;;;4.56;64.37;100107.34;104493;1104;64083;-65
2021/04/03 01:32:14;;;;;;;16.50;10.50;;;;;;;4.57;64.33;100112.52;104529;1104;81528;-66
2021/04/03 01:34:26;;;;;;;15.27;9.57;;;;;;;4.61;64.56;100108.53;104498;1104;71659;-59
2021/04/03 01:36:37;;;;;;;12.02;7.43;;;;;;;4.59;64.54;100110.51;104510;1104;84473;-59
2021/04/03 01:38:48;;;;;;;14.90;7.57;;;;;;;4.58;64.65;100118.70;104444;1104;78688;-59
2021/04/03 01:40:56;;;;;;;10.70;6.50;;;;;;;4.58;64.50;100110.68;104515;1104;64259;-59
2021/04/03 01:43:09;;;;;;;9.65;5.88;;;;;;;4.56;64.45;100110.01;104515;1103;82175;-65
2021/04/03 01:45:16;;;;;;;9.73;5.80;;;;;;;4.55;64.76;100110.99;104492;1104;71166;-67
2021/04/03 01:47:27;;;;;;;10.13;5.90;;;;;;;4.55;64.62;100102.97;104482;1104;84532;-65
2021/04/03 01:49:34;;;;;;;10.40;5.87;;;;;;;4.49;64.68;100104.44;104466;1104;77756;-60
2021/04/03 01:51:44;;;;;;;10.60;5.70;;;;;;;4.49;64.61;100107.11;104494;1104;64185;-60
2021/04/03 01:53:53;;;;;;;13.30;6.43;;;;;;;4.40;64.88;100110.72;104512;1104;82361;-64
2021/04/03 01:56:01;;;;;;;13.93;7.45;;;;;;;4.35;65.01;100106.84;104495;1103;70636;-64
2021/04/03 01:58:08;;;;;;;10.60;7.17;;;;;;;4.33;65.25;100103.48;104475;1104;83700;-59
2021/04/03 02:00:19;;;;;;;14.10;7.43;;;;;;;4.30;65.41;100103.80;104493;1104;78452;-59
2021/04/03 02:02:25;;;;;;;11.90;7.68;;;;;;;4.29;65.21;100097.61;104510;1103;64221;-59
2021/04/03 02:04:31;;;;;;;11.93;6.45;;;;;;;4.25;65.91;100098.94;104494;1104;82021;-60
2021/04/03 02:06:44;;;;;;;14.75;7.22;;;;;;;4.22;65.71;100106.42;104464;1104;71456;-60
2021/04/03 02:08:50;;;;;;;9.73;6.37;;;;;;;4.22;65.68;100101.07;104478;1104;84530;-64
2021/04/03 02:11:04;;;;;;;10.43;5.95;;;;;;;4.22;65.72;100101.07;104466;1103;78023;-64
2021/04/03 02:13:10;;;;;;;-1.00;-1.00;;;;;;;4.20;65.74;100103.92;104461;1104;64412;-59
2021/04/03 02:15:17;;;;;;;7.88;4.78;;;;;;;4.18;65.70;100106.73;104503;1104;81589;-59
2021/04/03 02:17:29;;;;;;;8.77;5.47;;;;;;;4.11;65.79;100111.03;104493;1103;73001;-59
2021/04/03 02:19:36;;;;;;;9.43;5.93;;;;;;;4.11;65.88;100110.19;104456;1104;85449;-58
2021/04/03 02:21:44;;;;;;;8.95;5.22;;;;;;;4.09;65.89;100112.99;104472;1104;77993;-59
2021/04/03 02:23:51;;;;;;;6.45;3.75;;;;;;;4.09;66.54;100117.53;104501;1104;64403;-64
2021/04/03 02:25:58;;;;;;;8.32;4.45;;;;;;;4.08;66.23;100113.16;104482;1104;81542;-64
2021/04/03 02:28:04;;;;;;;7.93;4.97;;;;;;;4.07;66.12;100119.49;104510;1104;70723;-59
2021/04/03 02:30:16;;;;;;;6.70;4.30;;;;;;;4.10;65.84;100111.16;104523;1104;84152;-58
2021/04/03 02:32:25;;;;;;;6.37;4.10;;;;;;;4.12;65.69;100111.88;104503;1104;77111;-59
2021/04/03 02:34:33;;;;;;;7.33;3.87;;;;;;;4.12;65.92;100111.88;104482;1104;64041;-64
2021/04/03 02:36:39;;;;;;;6.53;4.22;;;;;;;4.12;65.71;100123.38;104505;1104;82441;-62
2021/04/03 02:38:44;;;;;;;7.47;4.05;;;;;;;4.10;65.67;100120.03;104569;1104;71468;-63
2021/04/03 02:40:50;;;;;;;5.78;3.63;;;;;;;4.07;65.91;100120.34;104487;1104;84055;-62
2021/04/03 02:43:04;;;;;;;7.00;4.03;;;;;;;4.08;65.76;100115.84;104444;1104;78139;-63
2021/04/03 02:45:14;;;;;;;-1.00;-1.00;;;;;;;4.09;65.41;100122.88;104503;1104;64009;-62
2021/04/03 02:47:28;;;;;;;8.00;3.60;;;;;;;4.08;65.42;100123.85;104497;1104;81042;-62
2021/04/03 02:49:42;;;;;;;7.10;3.33;;;;;;;4.08;65.52;100113.16;104474;1104;72331;-59
2021/04/03 02:51:57;;;;;;;7.50;3.77;;;;;;;4.10;65.59;100120.03;104502;1104;84440;-60
2021/04/03 02:54:08;;;;;;;5.82;3.25;;;;;;;4.12;65.59;100112.69;104495;1104;76910;-65
2021/04/03 02:56:14;;;;;;;5.78;3.28;;;;;;;4.12;65.63;100115.36;104506;1104;64253;-66
2021/04/03 02:58:23;;;;;;;6.78;3.33;;;;;;;4.14;65.61;100109.88;104553;1104;81571;-61
2021/04/03 03:00:30;;;;;;;9.38;4.18;;;;;;;4.16;65.50;100129.27;104547;1104;71631;-60
2021/04/03 03:02:39;;;;;;;6.15;3.78;;;;;;;4.13;65.37;100114.38;104477;1104;84645;-60
2021/04/03 03:04:47;;;;;;;8.07;4.22;;;;;;;4.10;65.92;100124.53;104449;1104;77349;-65
2021/04/03 03:06:54;;;;;;;9.63;5.30;;;;;;;4.08;65.54;100127.38;104508;1104;64103;-64
2021/04/03 03:09:04;;;;;;;6.57;4.20;;;;;;;4.09;65.72;100128.22;104489;1104;81562;-66
2021/04/03 03:11:11;;;;;;;11.40;5.20;;;;;;;4.09;65.84;100133.56;104502;1104;71277;-65
2021/04/03 03:13:19;;;;;;;11.18;5.85;;;;;;;4.11;66.13;100137.76;104457;1104;85836;-60
2021/04/03 03:15:31;;;;;;;9.15;4.78;;;;;;;4.12;65.78;100134.07;104474;1104;77385;-60
2021/04/03 03:17:37;;;;;;;8.05;4.47;;;;;;;4.13;65.99;100135.77;104526;1104;64089;-60
2021/04/03 03:19:43;;;;;;;20.13;7.90;;;;;;;4.14;65.78;100141.95;104495;1104;81417;-65
2021/04/03 03:21:50;;;;;;;53.37;23.47;;;;;;;4.13;65.98;100138.44;104502;1104;70675;-65
2021/04/03 03:23:56;;;;;;;38.65;17.20;;;;;;;4.12;65.85;100139.42;104532;1104;85047;-65
2021/04/03 03:26:01;;;;;;;32.27;14.43;;;;;;;4.13;66.19;100134.91;104510;1104;77184;-65
2021/04/03 03:28:11;;;;;;;29.98;14.30;;;;;;;4.09;66.42;100139.72;104511;1104;64070;-60
2021/04/03 03:30:21;;;;;;;22.00;10.43;;;;;;;4.11;66.16;100140.43;104540;1104;82270;-60
2021/04/03 03:32:26;;;;;;;11.18;6.03;;;;;;;4.06;66.94;100133.87;104525;1104;72531;-60
2021/04/03 03:34:33;;;;;;;14.03;7.83;;;;;;;4.08;66.73;100140.73;104521;1104;84944;-66
2021/04/03 03:36:41;;;;;;;13.32;8.25;;;;;;;4.07;66.99;100141.72;104475;1104;77585;-65
2021/04/03 03:38:46;;;;;;;20.55;12.85;;;;;;;4.07;67.10;100140.88;104529;1104;64175;-65
2021/04/03 03:40:54;;;;;;;12.55;7.90;;;;;;;4.07;67.37;100144.39;104484;1104;82500;-65
2021/04/03 03:43:02;;;;;;;18.02;10.95;;;;;;;4.05;67.92;100145.55;104534;1104;71355;-64
2021/04/03 03:45:11;;;;;;;16.88;8.50;;;;;;;3.93;68.69;100155.62;104507;1104;85504;-64
2021/04/03 03:47:16;;;;;;;18.35;10.20;;;;;;;3.84;69.57;100158.38;104468;1104;77006;-65
2021/04/03 03:49:22;;;;;;;16.48;9.40;;;;;;;3.76;69.49;100169.84;104483;1104;64205;-65
2021/04/03 03:51:27;;;;;;;15.63;8.20;;;;;;;3.75;69.39;100168.14;104519;1104;82438;-65
2021/04/03 03:53:32;;;;;;;15.53;8.67;;;;;;;3.67;69.89;100169.88;104517;1104;71551;-61
2021/04/03 03:55:38;;;;;;;18.83;9.87;;;;;;;3.68;69.78;100175.06;104514;1104;84361;-60
2021/04/03 03:57:44;;;;;;;22.33;11.00;;;;;;;3.61;69.91;100176.67;104456;1104;77677;-61
2021/04/03 03:59:55;;;;;;;17.20;8.30;;;;;;;3.53;70.83;100168.57;104496;1104;64185;-65
2021/04/03 04:02:00;;;;;;;23.08;11.85;;;;;;;3.48;70.78;100176.20;104496;1104;81356;-65
2021/04/03 04:04:06;;;;;;;48.63;22.17;;;;;;;3.38;71.43;100172.72;104532;1104;70985;-64
2021/04/03 04:06:12;;;;;;;27.35;13.95;;;;;;;3.33;71.66;100177.67;104485;1104;84844;-64
2021/04/03 04:08:18;;;;;;;25.13;13.45;;;;;;;3.27;71.73;100176.44;104466;1104;79199;-64
2021/04/03 04:10:26;;;;;;;10.85;7.20;;;;;;;3.23;72.02;100175.06;104482;1104;64073;-64
2021/04/03 04:12:32;;;;;;;11.23;8.25;;;;;;;3.18;71.52;100176.50;104482;1104;81055;-65
2021/04/03 04:14:38;;;;;;;8.00;5.60;;;;;;;3.18;71.76;100171.16;104526;1104;72161;-61
2021/04/03 04:16:44;;;;;;;6.28;4.43;;;;;;;3.09;72.01;100175.55;104495;1104;84858;-60
2021/04/03 04:18:49;;;;;;;7.05;4.90;;;;;;;3.09;71.90;100172.88;104452;1104;78682;-60
2021/04/03 04:20:56;;;;;;;8.90;5.68;;;;;;;3.12;71.92;100174.41;104502;1104;64105;-60
2021/04/03 04:23:01;;;;;;;8.40;3.63;;;;;;;3.07;72.10;100179.35;104481;1104;80864;-62
2021/04/03 04:25:10;;;;;;;7.03;4.53;;;;;;;3.08;72.18;100178.38;104499;1104;71223;-62
2021/04/03 04:27:16;;;;;;;5.82;3.40;;;;;;;3.09;72.62;100185.38;104519;1104;84320;-62
2021/04/03 04:29:21;;;;;;;4.90;3.87;;;;;;;3.05;72.36;100178.66;104463;1104;78835;-65
2021/04/03 04:31:29;;;;;;;5.15;3.40;;;;;;;3.04;72.44;100179.64;104513;1104;64223;-66
2021/04/03 04:33:35;;;;;;;10.52;6.38;;;;;;;3.06;72.50;100180.33;104475;1104;81481;-60
2021/04/03 04:35:40;;;;;;;6.55;4.13;;;;;;;3.05;72.62;100173.33;104501;1104;71454;-60
2021/04/03 04:37:47;;;;;;;7.95;3.85;;;;;;;3.10;72.71;100181.73;104516;1104;83368;-60
2021/04/03 04:39:52;;;;;;;5.80;3.63;;;;;;;3.08;72.69;100183.71;104500;1104;78843;-60
2021/04/03 04:41:58;;;;;;;4.07;2.88;;;;;;;3.05;73.15;100184.00;104493;1104;64080;-61
2021/04/03 04:44:04;;;;;;;6.22;3.05;;;;;;;3.07;73.32;100182.87;104488;1104;82835;-61
2021/04/03 04:46:10;;;;;;;4.20;3.00;;;;;;;3.10;73.01;100181.73;104519;1104;71403;-58
2021/04/03 04:48:15;;;;;;;5.50;3.40;;;;;;;3.10;73.32;100179.91;104474;1103;84117;-61
2021/04/03 04:50:21;;;;;;;5.23;2.87;;;;;;;3.08;73.18;100178.38;104439;1104;78674;-60
2021/04/03 04:52:30;;;;;;;5.35;2.83;;;;;;;3.11;73.45;100183.39;104505;1104;64131;-62
2021/04/03 04:54:36;;;;;;;4.90;3.25;;;;;;;3.12;73.60;100185.08;104492;1103;82016;-60
2021/04/03 04:56:44;;;;;;;4.97;3.42;;;;;;;3.15;74.15;100190.98;104469;1104;72635;-60
2021/04/03 04:58:52;;;;;;;5.18;2.97;;;;;;;3.15;73.74;100182.97;104507;1104;83233;-60
2021/04/03 05:00:57;;;;;;;4.68;3.10;;;;;;;3.14;73.86;100191.11;104466;1104;77508;-61
2021/04/03 05:03:03;;;;;;;5.40;3.40;;;;;;;3.15;73.95;100185.64;104482;1104;64236;-61
2021/04/03 05:05:11;;;;;;;4.68;3.00;;;;;;;3.21;74.38;100200.23;104504;1104;82247;-61
2021/04/03 05:07:16;;;;;;;4.53;3.17;;;;;;;3.21;74.27;100194.89;104495;1104;71676;-61
2021/04/03 05:09:22;;;;;;;6.85;3.47;;;;;;;3.22;74.01;100196.55;104506;1104;84646;-66
2021/04/03 05:11:27;;;;;;;4.78;3.10;;;;;;;3.22;74.67;100204.55;104488;1104;76896;-67
2021/04/03 05:13:34;;;;;;;5.18;3.13;;;;;;;3.22;74.56;100202.73;104538;1103;64208;-60
2021/04/03 05:15:39;;;;;;;6.25;3.45;;;;;;;3.22;74.55;100209.89;104471;1104;80721;-61
2021/04/03 05:17:45;;;;;;;5.20;3.10;;;;;;;3.22;74.46;100197.39;104545;1103;70608;-60
2021/04/03 05:19:51;;;;;;;3.72;2.78;;;;;;;3.25;74.41;100196.25;104474;1104;84224;-66
2021/04/03 05:21:57;;;;;;;5.53;3.70;;;;;;;3.31;74.49;100204.53;104473;1104;79136;-66
2021/04/03 05:24:07;;;;;;;6.28;3.70;;;;;;;3.32;74.55;100208.05;104508;1104;64406;-65
2021/04/03 05:26:12;;;;;;;5.97;3.88;;;;;;;3.36;74.62;100212.92;104510;1104;81058;-67
2021/04/03 05:28:17;;;;;;;5.22;3.97;;;;;;;3.38;74.60;100218.95;104486;1104;70666;-61
2021/04/03 05:30:29;;;;;;;5.40;4.05;;;;;;;3.42;74.64;100214.16;104517;1104;84357;-61
2021/04/03 05:32:37;;;;;;;5.93;3.93;;;;;;;3.43;74.64;100221.20;104502;1104;77612;-61
2021/04/03 05:34:46;;;;;;;5.55;3.67;;;;;;;3.45;75.09;100216.55;104497;1104;64253;-62
2021/04/03 05:36:52;;;;;;;7.97;4.32;;;;;;;3.44;75.04;100220.19;104476;1104;81570;-62
2021/04/03 05:38:57;;;;;;;7.30;4.17;;;;;;;3.49;74.93;100212.56;104518;1104;71665;-68
2021/04/03 05:41:06;;;;;;;7.00;4.63;;;;;;;3.53;75.56;100216.64;104497;1104;84848;-70
2021/04/03 05:43:16;;;;;;;5.88;4.40;;;;;;;3.55;75.36;100219.99;104467;1104;78663;-68
2021/04/03 05:45:25;;;;;;;7.45;5.15;;;;;;;3.58;75.09;100223.22;104497;1103;64397;-69
2021/04/03 05:47:34;;;;;;;6.20;4.50;;;;;;;3.61;75.32;100224.74;104501;1104;80538;-71
2021/04/03 05:49:41;;;;;;;7.35;4.70;;;;;;;3.64;75.65;100219.11;104509;1104;70502;-61
2021/04/03 05:51:50;;;;;;;9.27;3.97;;;;;;;3.69;75.51;100219.49;104475;1104;84854;-62
2021/04/03 05:53:56;;;;;;;6.80;4.70;;;;;;;3.79;75.43;100217.59;104510;1104;77650;-68
2021/04/03 05:56:05;;;;;;;6.43;4.47;;;;;;;3.88;75.92;100216.70;104501;1104;64185;-71
2021/04/03 05:58:11;;;;;;;7.05;5.18;;;;;;;3.91;75.68;100223.57;104508;1104;80748;-74
2021/04/03 06:00:19;;;;;;;8.35;4.93;;;;;;;3.92;75.73;100222.59;104507;1104;71765;-64
2021/04/03 06:02:25;;;;;;;7.88;5.60;;;;;;;3.93;75.70;100218.91;104509;1104;84291;-65
2021/04/03 06:04:30;;;;;;;10.75;5.38;;;;;;;3.94;75.47;100218.77;104505;1104;79712;-65
2021/04/03 06:06:40;;;;;;;9.48;5.45;;;;;;;3.95;75.56;100215.12;104514;1104;64249;-64
2021/04/03 06:08:46;;;;;;;8.30;5.80;;;;;;;4.03;75.59;100215.20;104511;1104;81388;-64
2021/04/03 06:11:15;;;;;;;9.18;5.63;;;;;;;4.22;75.56;100214.20;104522;1104;71986;-65
2021/04/03 06:13:20;;;;;;;8.50;5.50;;;;;;;4.36;75.67;100212.81;104533;1104;84203;-65
2021/04/03 06:15:37;;;;;;;8.00;5.70;;;;;;;4.52;75.56;100212.95;104462;1103;78312;-64
2021/04/03 06:17:45;;;;;;;8.52;4.65;;;;;;;4.61;75.68;100214.70;104506;1103;64265;-65
2021/04/03 06:19:51;;;;;;;8.75;5.32;;;;;;;4.63;75.50;100205.52;104532;1104;82008;-61
2021/04/03 06:22:01;;;;;;;7.00;5.38;;;;;;;4.60;75.29;100208.50;104508;1104;71900;-62
2021/04/03 06:24:22;;;;;;;8.02;5.95;;;;;;;4.65;75.35;100216.89;104486;1104;84503;-61
2021/04/03 06:26:28;;;;;;;6.43;5.32;;;;;;;4.70;75.38;100209.23;104474;1103;77287;-61
2021/04/03 06:28:34;;;;;;;10.32;5.55;;;;;;;4.72;75.41;100209.09;104523;1104;64096;-61
2021/04/03 06:30:43;;;;;;;7.40;5.47;;;;;;;4.87;75.30;100220.89;104487;1104;83084;-61
2021/04/03 06:32:49;;;;;;;7.47;5.10;;;;;;;4.96;75.19;100217.28;104485;1104;71992;-62
2021/04/03 06:34:56;;;;;;;8.65;4.95;;;;;;;4.99;75.19;100221.48;104522;1104;84678;-61
2021/04/03 06:37:04;;;;;;;8.25;5.35;;;;;;;4.96;75.30;100225.31;104498;1103;78628;-60
2021/04/03 06:39:12;;;;;;;8.93;5.45;;;;;;;4.95;75.00;100222.77;104543;1104;64303;-65
2021/04/03 06:41:22;;;;;;;8.90;5.28;;;;;;;4.93;75.06;100230.98;104496;1104;81949;-65
2021/04/03 06:43:28;;;;;;;9.18;5.53;;;;;;;4.93;75.16;100224.78;104492;1104;71685;-62
2021/04/03 06:45:36;;;;;;;10.15;6.30;;;;;;;4.90;75.55;100231.28;104491;1104;83428;-61
2021/04/03 06:47:41;;;;;;;11.20;6.07;;;;;;;4.84;75.14;100228.39;104465;1104;78836;-62
2021/04/03 06:49:47;;;;;;;8.93;5.97;;;;;;;4.90;74.67;100225.09;104506;1104;64234;-64
2021/04/03 06:51:54;;;;;;;9.20;5.40;;;;;;;4.84;75.00;100229.23;104481;1104;82193;-65
2021/04/03 06:54:02;;;;;;;8.80;5.18;;;;;;;4.77;75.63;100238.89;104533;1104;70921;-61
2021/04/03 06:56:11;;;;;;;7.75;5.22;;;;;;;4.80;74.94;100240.42;104489;1103;83180;-61
2021/04/03 06:58:17;;;;;;;6.82;5.15;;;;;;;4.79;74.78;100244.92;104513;1103;77675;-61
2021/04/03 07:00:24;;;;;;;7.57;4.70;;;;;;;4.73;74.17;100243.71;104523;1104;64109;-61
2021/04/03 07:02:32;;;;;;;5.65;4.03;;;;;;;4.70;73.77;100241.34;104518;1104;82308;-61
2021/04/03 07:04:44;;;;;;;6.35;5.07;;;;;;;4.72;73.44;100250.05;104506;1104;71723;-65
2021/04/03 07:06:51;;;;;;;6.20;4.70;;;;;;;4.76;73.16;100245.23;104498;1104;83224;-65
2021/04/03 07:09:00;;;;;;;7.32;4.55;;;;;;;4.80;73.13;100251.97;104450;1104;77685;-61
2021/04/03 07:11:08;;;;;;;6.60;4.60;;;;;;;4.78;73.32;100256.61;104502;1104;64182;-61
2021/04/03 07:13:14;;;;;;;7.25;5.10;;;;;;;4.73;73.35;100258.92;104495;1104;81550;-65
2021/04/03 07:15:21;;;;;;;6.15;4.90;;;;;;;4.79;73.26;100263.66;104512;1104;70998;-65
2021/04/03 07:17:31;;;;;;;6.72;5.20;;;;;;;4.75;73.55;100257.77;104474;1104;84141;-65
2021/04/03 07:19:39;;;;;;;5.55;4.30;;;;;;;4.69;73.33;100266.44;104478;1104;76786;-61
2021/04/03 07:21:46;;;;;;;6.43;4.60;;;;;;;4.73;73.22;100272.30;104509;1104;64406;-61
2021/04/03 07:23:52;;;;;;;7.65;3.97;;;;;;;4.75;72.93;100278.36;104526;1104;80966;-65
2021/04/03 07:26:01;;;;;;;5.90;4.35;;;;;;;4.73;72.92;100283.84;104488;1104;72003;-64
2021/04/03 07:28:08;;;;;;;6.97;4.32;;;;;;;4.79;72.78;100287.73;104521;1104;84445;-64
2021/04/03 07:30:39;;;;;;;8.47;4.87;;;;;;;4.81;73.02;100292.95;104516;1104;77189;-65
2021/04/03 07:33:06;;;;;;;6.05;4.32;;;;;;;4.90;73.06;100290.17;104518;1104;64108;-65
2021/04/03 07:35:25;;;;;;;6.55;4.82;;;;;;;5.00;72.94;100293.58;104533;1104;81290;-60
2021/04/03 07:37:37;;;;;;;6.30;4.43;;;;;;;5.17;72.54;100308.77;104518;1104;72392;-61
2021/04/03 07:39:44;;;;;;;5.30;3.80;;;;;;;5.23;72.17;100305.47;104506;1104;84150;-65
2021/04/03 07:41:50;;;;;;;7.05;4.05;;;;;;;5.27;71.96;100306.81;104485;1104;77459;-64
2021/04/03 07:43:59;;;;;;;5.93;4.10;;;;;;;5.34;71.56;100307.04;104519;1104;64182;-60
2021/04/03 07:46:16;;;;;;;4.75;4.05;;;;;;;5.43;71.12;100311.45;104468;1104;81583;-60
2021/04/03 07:48:43;;;;;;;6.23;4.03;;;;;;;5.45;70.29;100317.48;104539;1104;71627;-60
2021/04/03 07:50:52;;;;;;;7.25;4.13;;;;;;;5.52;69.94;100317.70;104492;1104;83706;-60
2021/04/03 07:52:58;;;;;;;5.57;4.10;;;;;;;5.54;70.24;100308.50;104524;1104;77527;-64
2021/04/03 07:55:33;;;;;;;6.82;4.18;;;;;;;5.57;69.85;100318.06;104508;1104;64108;-64
2021/04/03 07:57:38;;;;;;;6.43;3.88;;;;;;;5.64;69.38;100317.26;104518;1104;82471;-64
2021/04/03 07:59:54;;;;;;;7.38;4.15;;;;;;;5.57;69.33;100326.10;104495;1104;72606;-64
2021/04/03 08:01:59;;;;;;;6.77;4.30;;;;;;;5.58;69.37;100325.92;104482;1104;85726;-64
2021/04/03 08:04:08;;;;;;;7.30;4.23;;;;;;;5.69;69.29;100327.48;104466;1104;78762;-64
2021/04/03 08:06:13;;;;;;;6.07;4.05;;;;;;;5.91;68.72;100329.64;104507;1104;64176;-64
2021/04/03 08:08:22;;;;;;;5.95;4.20;;;;;;;6.06;68.95;100328.04;104463;1103;81325;-61
2021/04/03 08:10:27;;;;;;;5.47;3.90;;;;;;;6.19;68.55;100325.73;104485;1104;72173;-61
2021/04/03 08:12:33;;;;;;;5.50;4.05;;;;;;;6.38;68.42;100328.13;104470;1104;85441;-61
2021/04/03 08:14:39;;;;;;;6.75;4.40;;;;;;;6.60;67.60;100331.17;104443;1104;77680;-60
2021/04/03 08:16:47;;;;;;;4.40;3.80;;;;;;;6.76;67.81;100336.56;104501;1104;64105;-60
2021/04/03 08:18:55;;;;;;;5.53;3.83;;;;;;;6.87;67.57;100333.55;104470;1104;82280;-61
2021/04/03 08:21:03;;;;;;;8.07;4.13;;;;;;;7.03;67.26;100344.33;104519;1104;72555;-60
2021/04/03 08:23:09;;;;;;;6.50;4.20;;;;;;;7.40;67.85;100335.72;104505;1104;84829;-64
2021/04/03 08:25:15;;;;;;;4.72;4.00;;;;;;;9.59;67.88;100338.80;104457;1104;76947;-64
2021/04/03 08:27:32;;;;;;;5.83;3.43;;;;;;;9.94;63.41;100333.51;104524;1104;64074;-64
2021/04/03 08:29:38;;;;;;;5.43;3.38;;;;;;;10.53;63.45;100338.86;104495;1104;81397;-64
2021/04/03 08:31:49;;;;;;;4.95;3.30;;;;;;;10.04;61.39;100344.88;104490;1104;72136;-64
2021/04/03 08:34:00;;;;;;;5.32;3.55;;;;;;;9.65;60.87;100348.85;104484;1104;83606;-62
2021/04/03 08:36:15;;;;;;;5.82;4.38;;;;;;;11.08;61.97;100344.43;104459;1104;76793;-61
2021/04/03 08:38:24;;;;;;;4.43;3.27;;;;;;;13.21;58.89;100345.14;104515;1104;64189;-61
2021/04/03 08:40:34;;;;;;;3.65;3.03;;;;;;;14.42;56.16;100338.30;104520;1104;81690;-63
2021/04/03 08:42:39;;;;;;;3.22;2.50;;;;;;;15.54;53.50;100344.70;104513;1104;71460;-61
2021/04/03 08:44:48;;;;;;;4.18;2.40;;;;;;;16.49;51.50;100340.53;104476;1104;84345;-65
2021/04/03 08:47:00;;;;;;;3.67;2.20;;;;;;;16.97;49.49;100341.38;104480;1104;78156;-67
2021/04/03 08:49:05;;;;;;;3.70;2.47;;;;;;;15.46;48.08;100350.44;104520;1104;64108;-61
2021/04/03 08:51:13;;;;;;;2.88;2.22;;;;;;;15.31;47.87;100353.44;104482;1104;81829;-60
2021/04/03 08:53:20;;;;;;;3.67;2.13;;;;;;;16.11;47.01;100350.84;104488;1104;71723;-65
2021/04/03 08:55:27;;;;;;;3.70;2.30;;;;;;;16.64;45.03;100357.38;104519;1103;83251;-61
2021/04/03 08:57:32;;;;;;;3.63;2.47;;;;;;;17.53;45.35;100357.31;104472;1104;77599;-60
2021/04/03 08:59:37;;;;;;;3.95;2.65;;;;;;;18.24;44.10;100354.33;104496;1104;64231;-61
2021/04/03 09:01:48;;;;;;;3.50;2.35;;;;;;;18.16;43.46;100346.50;104502;1104;82120;-60
2021/04/03 09:03:58;;;;;;;3.42;2.45;;;;;;;16.59;41.32;100359.13;104513;1104;72229;-60
2021/04/03 09:06:08;;;;;;;3.13;1.95;;;;;;;15.73;40.66;100362.76;104499;1104;83893;-61
2021/04/03 09:08:23;;;;;;;5.07;4.20;;;;;;;14.35;42.85;100360.05;104450;1104;77639;-65
2021/04/03 09:10:39;;;;;;;8.07;6.18;;;;;;;13.18;43.51;100375.42;104503;1104;64102;-60
2021/04/03 09:12:46;;;;;;;6.93;4.45;;;;;;;12.35;44.22;100382.01;104481;1104;82184;-60
2021/04/03 09:14:54;;;;;;;86.15;44.22;;;;;;;11.66;44.51;100377.58;104530;1104;71582;-60
2021/04/03 09:17:01;;;;;;;24.02;13.43;;;;;;;12.57;46.77;100373.75;104498;1103;86043;-60
2021/04/03 09:19:07;;;;;;;7.30;4.18;;;;;;;13.96;45.42;100357.41;104489;1103;78917;-64
2021/04/03 09:21:23;;;;;;;43.13;29.93;;;;;;;14.45;43.45;100371.30;104509;1104;64144;-60
2021/04/03 09:23:39;;;;;;;119.00;83.28;;;;;;;13.58;43.12;100374.38;104502;1104;80219;-61
2021/04/03 09:25:46;;;;;;;53.17;44.33;;;;;;;12.60;44.45;100381.48;104483;1104;71731;-60
2021/04/03 09:28:06;;;;;;;54.70;49.03;;;;;;;12.14;44.65;100371.25;104533;1104;84369;-62
2021/04/03 09:30:15;;;;;;;15.70;14.18;;;;;;;11.61;45.57;100380.05;104493;1104;78872;-60
2021/04/03 09:32:20;;;;;;;22.15;17.85;;;;;;;11.34;45.93;100381.70;104535;1104;63990;-60
2021/04/03 09:34:34;;;;;;;49.47;44.47;;;;;;;10.81;46.16;100384.89;104461;1103;82012;-61
2021/04/03 09:36:50;;;;;;;18.75;16.95;;;;;;;10.40;47.26;100384.62;104493;1104;71580;-61
2021/04/03 09:38:58;;;;;;;4.40;3.47;;;;;;;10.00;47.17;100386.74;104509;1104;84962;-61
2021/04/03 09:41:03;;;;;;;3.15;2.15;;;;;;;9.69;47.55;100394.17;104477;1103;77523;-60
2021/04/03 09:43:13;;;;;;;4.68;3.10;;;;;;;9.48;48.50;100394.02;104513;1104;64076;-62
2021/04/03 09:45:22;;;;;;;3.55;2.85;;;;;;;9.41;48.78;100406.56;104493;1104;82121;-59
2021/04/03 09:47:30;;;;;;;5.13;3.20;;;;;;;9.31;48.92;100393.32;104516;1104;71366;-60
2021/04/03 09:49:36;;;;;;;7.95;3.75;;;;;;;9.70;49.79;100395.83;104465;1104;84419;-61
2021/04/03 09:51:41;;;;;;;5.93;3.75;;;;;;;10.56;49.36;100395.20;104493;1104;77857;-61
2021/04/03 09:53:52;;;;;;;3.90;1.85;;;;;;;11.07;48.76;100385.19;104498;1104;64262;-61
2021/04/03 09:56:01;;;;;;;3.80;1.92;;;;;;;11.39;47.96;100387.36;104483;1104;82346;-64